sensor_id;sensor_type;location;lat;lon;timestamp;temperature;humidity
7341;DHT22;6870;50.944;6.932;2022-07-23T00:01:02;25.60;27.80
7341;DHT22;6870;50.944;6.932;2022-07-23T00:03:31;25.90;28.00
7341;DHT22;6870;50.944;6.932;2022-07-23T00:05:59;25.40;27.70
7341;DHT22;6870;50.944;6.932;2022-07-23T00:08:29;25.60;27.90
7341;DHT22;6870;50.944;6.932;2022-07-23T00:10:57;25.80;28.20
7341;DHT22;6870;50.944;6.932;2022-07-23T00:13:25;25.40;28.20
7341;DHT22;6870;50.944;6.932;2022-07-23T00:15:53;25.50;28.60
7341;DHT22;6870;50.944;6.932;2022-07-23T00:18:22;25.30;28.60
7341;DHT22;6870;50.944;6.932;2022-07-23T00:20:52;25.70;29.10
7341;DHT22;6870;50.944;6.932;2022-07-23T00:23:20;25.50;29.00
7341;DHT22;6870;50.944;6.932;2022-07-23T00:25:49;25.70;29.40
7341;DHT22;6870;50.944;6.932;2022-07-23T00:28:18;25.80;29.50
7341;DHT22;6870;50.944;6.932;2022-07-23T00:30:46;25.30;30.00
7341;DHT22;6870;50.944;6.932;2022-07-23T00:33:14;25.60;30.50
7341;DHT22;6870;50.944;6.932;2022-07-23T00:35:42;25.30;31.20
7341;DHT22;6870;50.944;6.932;2022-07-23T00:38:11;25.40;32.00
7341;DHT22;6870;50.944;6.932;2022-07-23T00:40:40;25.10;32.10
7341;DHT22;6870;50.944;6.932;2022-07-23T00:43:09;25.50;32.10
7341;DHT22;6870;50.944;6.932;2022-07-23T00:45:37;25.00;31.70
7341;DHT22;6870;50.944;6.932;2022-07-23T00:48:06;25.20;31.40
7341;DHT22;6870;50.944;6.932;2022-07-23T00:50:35;25.50;31.40
7341;DHT22;6870;50.944;6.932;2022-07-23T00:53:03;25.60;31.80
7341;DHT22;6870;50.944;6.932;2022-07-23T00:55:32;25.40;31.60
7341;DHT22;6870;50.944;6.932;2022-07-23T00:58:01;25.40;31.20
7341;DHT22;6870;50.944;6.932;2022-07-23T01:00:31;25.10;31.80
7341;DHT22;6870;50.944;6.932;2022-07-23T01:02:59;25.10;32.00
7341;DHT22;6870;50.944;6.932;2022-07-23T01:05:27;25.00;31.60
7341;DHT22;6870;50.944;6.932;2022-07-23T01:07:56;25.10;31.70
7341;DHT22;6870;50.944;6.932;2022-07-23T01:10:24;25.30;31.30
7341;DHT22;6870;50.944;6.932;2022-07-23T01:13:00;25.50;31.60
7341;DHT22;6870;50.944;6.932;2022-07-23T01:15:31;25.10;30.40
7341;DHT22;6870;50.944;6.932;2022-07-23T01:17:59;25.70;30.50
7341;DHT22;6870;50.944;6.932;2022-07-23T01:20:28;25.70;30.90
7341;DHT22;6870;50.944;6.932;2022-07-23T01:22:58;25.50;30.40
7341;DHT22;6870;50.944;6.932;2022-07-23T01:25:26;25.50;30.80
7341;DHT22;6870;50.944;6.932;2022-07-23T01:27:54;25.70;30.50
7341;DHT22;6870;50.944;6.932;2022-07-23T01:30:22;25.40;30.30
7341;DHT22;6870;50.944;6.932;2022-07-23T01:32:51;25.60;30.50
7341;DHT22;6870;50.944;6.932;2022-07-23T01:35:19;25.60;30.50
7341;DHT22;6870;50.944;6.932;2022-07-23T01:37:47;25.40;31.60
7341;DHT22;6870;50.944;6.932;2022-07-23T01:40:16;24.90;33.20
7341;DHT22;6870;50.944;6.932;2022-07-23T01:42:46;24.80;34.70
7341;DHT22;6870;50.944;6.932;2022-07-23T01:45:14;24.90;35.00
7341;DHT22;6870;50.944;6.932;2022-07-23T01:47:43;25.10;33.40
7341;DHT22;6870;50.944;6.932;2022-07-23T01:50:11;25.20;32.50
7341;DHT22;6870;50.944;6.932;2022-07-23T01:52:39;25.40;32.10
7341;DHT22;6870;50.944;6.932;2022-07-23T01:55:08;25.50;32.00
7341;DHT22;6870;50.944;6.932;2022-07-23T01:57:46;25.60;31.70
7341;DHT22;6870;50.944;6.932;2022-07-23T02:00:14;25.50;31.50
7341;DHT22;6870;50.944;6.932;2022-07-23T02:02:42;25.50;31.60
7341;DHT22;6870;50.944;6.932;2022-07-23T02:05:10;25.50;31.60
7341;DHT22;6870;50.944;6.932;2022-07-23T02:07:38;25.70;31.60
7341;DHT22;6870;50.944;6.932;2022-07-23T02:10:08;25.80;31.70
7341;DHT22;6870;50.944;6.932;2022-07-23T02:12:36;25.60;31.70
7341;DHT22;6870;50.944;6.932;2022-07-23T02:15:07;25.70;31.90
7341;DHT22;6870;50.944;6.932;2022-07-23T02:17:36;25.70;31.90
7341;DHT22;6870;50.944;6.932;2022-07-23T02:20:06;25.80;31.90
7341;DHT22;6870;50.944;6.932;2022-07-23T02:22:35;25.70;31.80
7341;DHT22;6870;50.944;6.932;2022-07-23T02:25:04;25.50;31.70
7341;DHT22;6870;50.944;6.932;2022-07-23T02:27:33;25.50;31.70
7341;DHT22;6870;50.944;6.932;2022-07-23T02:30:02;25.50;31.80
7341;DHT22;6870;50.944;6.932;2022-07-23T02:32:33;25.70;31.90
7341;DHT22;6870;50.944;6.932;2022-07-23T02:35:01;25.70;32.00
7341;DHT22;6870;50.944;6.932;2022-07-23T02:37:30;25.70;32.00
7341;DHT22;6870;50.944;6.932;2022-07-23T02:39:58;25.70;32.00
7341;DHT22;6870;50.944;6.932;2022-07-23T02:42:26;25.80;32.10
7341;DHT22;6870;50.944;6.932;2022-07-23T02:44:54;25.70;32.10
7341;DHT22;6870;50.944;6.932;2022-07-23T02:47:23;25.60;32.00
7341;DHT22;6870;50.944;6.932;2022-07-23T02:49:52;25.70;32.20
7341;DHT22;6870;50.944;6.932;2022-07-23T02:52:20;25.70;32.20
7341;DHT22;6870;50.944;6.932;2022-07-23T02:54:49;25.60;32.10
7341;DHT22;6870;50.944;6.932;2022-07-23T02:57:17;25.60;32.20
7341;DHT22;6870;50.944;6.932;2022-07-23T02:59:45;25.40;32.20
7341;DHT22;6870;50.944;6.932;2022-07-23T03:02:13;25.60;32.30
7341;DHT22;6870;50.944;6.932;2022-07-23T03:04:41;25.70;32.40
7341;DHT22;6870;50.944;6.932;2022-07-23T03:07:11;25.40;32.10
7341;DHT22;6870;50.944;6.932;2022-07-23T03:09:39;25.70;32.50
7341;DHT22;6870;50.944;6.932;2022-07-23T03:12:08;25.70;32.50
7341;DHT22;6870;50.944;6.932;2022-07-23T03:14:40;25.70;32.50
7341;DHT22;6870;50.944;6.932;2022-07-23T03:17:09;25.60;32.50
7341;DHT22;6870;50.944;6.932;2022-07-23T03:19:37;25.70;32.60
7341;DHT22;6870;50.944;6.932;2022-07-23T03:22:05;25.70;32.70
7341;DHT22;6870;50.944;6.932;2022-07-23T03:24:35;25.60;32.80
7341;DHT22;6870;50.944;6.932;2022-07-23T03:27:22;25.50;32.70
7341;DHT22;6870;50.944;6.932;2022-07-23T03:29:51;25.60;32.90
7341;DHT22;6870;50.944;6.932;2022-07-23T03:32:19;25.90;33.00
7341;DHT22;6870;50.944;6.932;2022-07-23T03:34:48;25.70;32.70
7341;DHT22;6870;50.944;6.932;2022-07-23T03:37:17;25.50;32.70
7341;DHT22;6870;50.944;6.932;2022-07-23T03:39:49;25.60;32.80
7341;DHT22;6870;50.944;6.932;2022-07-23T03:42:17;25.70;32.90
7341;DHT22;6870;50.944;6.932;2022-07-23T03:44:45;25.70;32.90
7341;DHT22;6870;50.944;6.932;2022-07-23T03:47:13;25.70;33.10
7341;DHT22;6870;50.944;6.932;2022-07-23T03:49:43;25.60;33.10
7341;DHT22;6870;50.944;6.932;2022-07-23T03:52:11;25.70;33.10
7341;DHT22;6870;50.944;6.932;2022-07-23T03:54:39;25.70;33.10
7341;DHT22;6870;50.944;6.932;2022-07-23T03:57:09;25.70;33.20
7341;DHT22;6870;50.944;6.932;2022-07-23T03:59:37;25.70;33.40
7341;DHT22;6870;50.944;6.932;2022-07-23T04:02:05;25.50;33.10
7341;DHT22;6870;50.944;6.932;2022-07-23T04:04:33;25.60;33.30
7341;DHT22;6870;50.944;6.932;2022-07-23T04:07:01;25.60;33.20
7341;DHT22;6870;50.944;6.932;2022-07-23T04:09:31;25.70;33.20
7341;DHT22;6870;50.944;6.932;2022-07-23T04:11:59;25.50;33.20
7341;DHT22;6870;50.944;6.932;2022-07-23T04:14:29;25.80;33.30
7341;DHT22;6870;50.944;6.932;2022-07-23T04:16:57;25.80;33.40
7341;DHT22;6870;50.944;6.932;2022-07-23T04:19:25;25.50;33.30
7341;DHT22;6870;50.944;6.932;2022-07-23T04:21:53;25.70;33.50
7341;DHT22;6870;50.944;6.932;2022-07-23T04:24:22;25.60;33.50
7341;DHT22;6870;50.944;6.932;2022-07-23T04:26:50;26.00;33.70
7341;DHT22;6870;50.944;6.932;2022-07-23T04:29:18;25.70;33.70
7341;DHT22;6870;50.944;6.932;2022-07-23T04:31:48;26.00;34.20
7341;DHT22;6870;50.944;6.932;2022-07-23T04:34:16;25.60;34.20
7341;DHT22;6870;50.944;6.932;2022-07-23T04:36:44;25.70;35.00
7341;DHT22;6870;50.944;6.932;2022-07-23T04:39:13;25.80;34.20
7341;DHT22;6870;50.944;6.932;2022-07-23T04:41:41;26.00;34.50
7341;DHT22;6870;50.944;6.932;2022-07-23T04:44:09;25.50;34.10
7341;DHT22;6870;50.944;6.932;2022-07-23T04:46:37;26.00;34.50
7341;DHT22;6870;50.944;6.932;2022-07-23T04:49:07;25.50;34.10
7341;DHT22;6870;50.944;6.932;2022-07-23T04:51:35;25.80;34.40
7341;DHT22;6870;50.944;6.932;2022-07-23T04:54:03;25.70;34.50
7341;DHT22;6870;50.944;6.932;2022-07-23T04:56:31;26.00;34.70
7341;DHT22;6870;50.944;6.932;2022-07-23T04:58:59;25.70;34.50
7341;DHT22;6870;50.944;6.932;2022-07-23T05:01:28;25.50;34.40
7341;DHT22;6870;50.944;6.932;2022-07-23T05:03:56;25.60;34.50
7341;DHT22;6870;50.944;6.932;2022-07-23T05:06:26;25.70;34.50
7341;DHT22;6870;50.944;6.932;2022-07-23T05:08:54;25.80;34.60
7341;DHT22;6870;50.944;6.932;2022-07-23T05:11:23;25.90;34.50
7341;DHT22;6870;50.944;6.932;2022-07-23T05:13:53;25.70;34.50
7341;DHT22;6870;50.944;6.932;2022-07-23T05:16:21;25.80;34.50
7341;DHT22;6870;50.944;6.932;2022-07-23T05:18:49;25.70;34.40
7341;DHT22;6870;50.944;6.932;2022-07-23T05:21:17;25.80;34.50
7341;DHT22;6870;50.944;6.932;2022-07-23T05:23:47;25.80;34.50
7341;DHT22;6870;50.944;6.932;2022-07-23T05:26:15;25.80;34.30
7341;DHT22;6870;50.944;6.932;2022-07-23T05:28:43;25.90;34.50
7341;DHT22;6870;50.944;6.932;2022-07-23T05:31:26;26.00;34.40
7341;DHT22;6870;50.944;6.932;2022-07-23T05:33:54;26.20;34.50
7341;DHT22;6870;50.944;6.932;2022-07-23T05:36:22;26.00;34.20
7341;DHT22;6870;50.944;6.932;2022-07-23T05:38:52;25.90;34.20
7341;DHT22;6870;50.944;6.932;2022-07-23T05:41:20;25.80;34.00
7341;DHT22;6870;50.944;6.932;2022-07-23T05:43:48;26.10;34.30
7341;DHT22;6870;50.944;6.932;2022-07-23T05:46:16;25.80;34.00
7341;DHT22;6870;50.944;6.932;2022-07-23T05:48:44;25.90;34.00
7341;DHT22;6870;50.944;6.932;2022-07-23T05:51:19;26.00;33.90
7341;DHT22;6870;50.944;6.932;2022-07-23T05:53:49;26.10;34.00
7341;DHT22;6870;50.944;6.932;2022-07-23T05:56:20;25.80;33.70
7341;DHT22;6870;50.944;6.932;2022-07-23T05:58:48;26.30;34.10
7341;DHT22;6870;50.944;6.932;2022-07-23T06:01:16;26.50;34.10
7341;DHT22;6870;50.944;6.932;2022-07-23T06:03:45;26.60;34.10
7341;DHT22;6870;50.944;6.932;2022-07-23T06:06:13;26.30;33.90
7341;DHT22;6870;50.944;6.932;2022-07-23T06:08:41;26.00;33.50
7341;DHT22;6870;50.944;6.932;2022-07-23T06:11:09;26.30;33.60
7341;DHT22;6870;50.944;6.932;2022-07-23T06:13:38;26.40;33.70
7341;DHT22;6870;50.944;6.932;2022-07-23T06:16:07;26.00;33.30
7341;DHT22;6870;50.944;6.932;2022-07-23T06:18:35;26.30;33.50
7341;DHT22;6870;50.944;6.932;2022-07-23T06:21:03;26.30;33.50
7341;DHT22;6870;50.944;6.932;2022-07-23T06:23:51;26.40;33.50
7341;DHT22;6870;50.944;6.932;2022-07-23T06:26:19;26.10;33.30
7341;DHT22;6870;50.944;6.932;2022-07-23T06:28:49;26.50;33.60
7341;DHT22;6870;50.944;6.932;2022-07-23T06:31:17;26.10;33.20
7341;DHT22;6870;50.944;6.932;2022-07-23T06:33:45;26.10;33.20
7341;DHT22;6870;50.944;6.932;2022-07-23T06:36:13;26.40;33.40
7341;DHT22;6870;50.944;6.932;2022-07-23T06:38:41;26.10;33.10
7341;DHT22;6870;50.944;6.932;2022-07-23T06:41:10;26.40;33.30
7341;DHT22;6870;50.944;6.932;2022-07-23T06:43:38;26.70;33.50
7341;DHT22;6870;50.944;6.932;2022-07-23T06:46:08;26.20;33.00
7341;DHT22;6870;50.944;6.932;2022-07-23T06:48:36;26.20;33.00
7341;DHT22;6870;50.944;6.932;2022-07-23T06:51:05;26.50;33.20
7341;DHT22;6870;50.944;6.932;2022-07-23T06:53:33;26.40;33.20
7341;DHT22;6870;50.944;6.932;2022-07-23T06:56:01;26.30;33.20
7341;DHT22;6870;50.944;6.932;2022-07-23T06:58:29;26.30;33.10
7341;DHT22;6870;50.944;6.932;2022-07-23T07:00:57;26.10;32.80
7341;DHT22;6870;50.944;6.932;2022-07-23T07:03:26;26.40;33.00
7341;DHT22;6870;50.944;6.932;2022-07-23T07:05:55;26.60;33.10
7341;DHT22;6870;50.944;6.932;2022-07-23T07:08:24;26.30;32.80
7341;DHT22;6870;50.944;6.932;2022-07-23T07:10:52;26.30;32.70
7341;DHT22;6870;50.944;6.932;2022-07-23T07:13:20;26.60;32.90
7341;DHT22;6870;50.944;6.932;2022-07-23T07:15:48;26.30;32.60
7341;DHT22;6870;50.944;6.932;2022-07-23T07:18:16;26.60;32.80
7341;DHT22;6870;50.944;6.932;2022-07-23T07:20:46;26.80;32.90
7341;DHT22;6870;50.944;6.932;2022-07-23T07:23:14;26.70;32.80
7341;DHT22;6870;50.944;6.932;2022-07-23T07:25:42;26.20;32.50
7341;DHT22;6870;50.944;6.932;2022-07-23T07:28:10;26.20;32.50
7341;DHT22;6870;50.944;6.932;2022-07-23T07:30:38;26.60;33.40
7341;DHT22;6870;50.944;6.932;2022-07-23T07:33:07;26.30;32.30
7341;DHT22;6870;50.944;6.932;2022-07-23T07:35:35;26.40;32.30
7341;DHT22;6870;50.944;6.932;2022-07-23T07:38:04;26.40;32.20
7341;DHT22;6870;50.944;6.932;2022-07-23T07:40:33;26.60;32.40
7341;DHT22;6870;50.944;6.932;2022-07-23T07:43:01;26.80;32.60
7341;DHT22;6870;50.944;6.932;2022-07-23T07:45:30;26.70;32.50
7341;DHT22;6870;50.944;6.932;2022-07-23T07:47:58;26.60;32.40
7341;DHT22;6870;50.944;6.932;2022-07-23T07:50:26;26.60;32.40
7341;DHT22;6870;50.944;6.932;2022-07-23T07:52:55;26.60;32.30
7341;DHT22;6870;50.944;6.932;2022-07-23T07:55:24;26.60;32.30
7341;DHT22;6870;50.944;6.932;2022-07-23T07:57:53;26.80;32.40
7341;DHT22;6870;50.944;6.932;2022-07-23T08:00:21;26.70;32.30
7341;DHT22;6870;50.944;6.932;2022-07-23T08:02:53;26.90;32.30
7341;DHT22;6870;50.944;6.932;2022-07-23T08:05:23;26.80;32.10
7341;DHT22;6870;50.944;6.932;2022-07-23T08:07:55;26.60;32.00
7341;DHT22;6870;50.944;6.932;2022-07-23T08:10:25;26.80;32.20
7341;DHT22;6870;50.944;6.932;2022-07-23T08:12:55;27.10;32.30
7341;DHT22;6870;50.944;6.932;2022-07-23T08:15:25;26.90;32.10
7341;DHT22;6870;50.944;6.932;2022-07-23T08:17:54;27.10;32.20
7341;DHT22;6870;50.944;6.932;2022-07-23T08:20:24;26.50;31.70
7341;DHT22;6870;50.944;6.932;2022-07-23T08:22:56;26.80;31.80
7341;DHT22;6870;50.944;6.932;2022-07-23T08:25:28;26.70;31.70
7341;DHT22;6870;50.944;6.932;2022-07-23T08:27:58;26.80;31.70
7341;DHT22;6870;50.944;6.932;2022-07-23T08:30:27;26.70;31.80
7341;DHT22;6870;50.944;6.932;2022-07-23T08:32:57;26.70;31.80
7341;DHT22;6870;50.944;6.932;2022-07-23T08:35:28;26.90;32.10
7341;DHT22;6870;50.944;6.932;2022-07-23T08:37:59;27.00;32.20
7341;DHT22;6870;50.944;6.932;2022-07-23T08:40:31;26.70;31.90
7341;DHT22;6870;50.944;6.932;2022-07-23T08:43:10;26.80;31.90
7341;DHT22;6870;50.944;6.932;2022-07-23T08:45:40;26.90;31.90
7341;DHT22;6870;50.944;6.932;2022-07-23T08:48:13;26.90;31.80
7341;DHT22;6870;50.944;6.932;2022-07-23T08:50:44;27.00;31.80
7341;DHT22;6870;50.944;6.932;2022-07-23T08:53:15;26.70;30.90
7341;DHT22;6870;50.944;6.932;2022-07-23T08:55:46;26.70;30.00
7341;DHT22;6870;50.944;6.932;2022-07-23T08:58:15;26.70;29.50
7341;DHT22;6870;50.944;6.932;2022-07-23T09:00:45;26.40;30.40
7341;DHT22;6870;50.944;6.932;2022-07-23T09:03:16;26.00;30.30
7341;DHT22;6870;50.944;6.932;2022-07-23T09:05:45;26.10;30.40
7341;DHT22;6870;50.944;6.932;2022-07-23T09:08:15;26.40;30.40
7341;DHT22;6870;50.944;6.932;2022-07-23T09:10:54;26.10;29.70
7341;DHT22;6870;50.944;6.932;2022-07-23T09:13:25;26.10;29.80
7341;DHT22;6870;50.944;6.932;2022-07-23T09:16:00;26.50;29.20
7341;DHT22;6870;50.944;6.932;2022-07-23T09:18:35;26.50;29.40
7341;DHT22;6870;50.944;6.932;2022-07-23T09:21:14;26.50;29.40
7341;DHT22;6870;50.944;6.932;2022-07-23T09:23:49;26.30;29.10
7341;DHT22;6870;50.944;6.932;2022-07-23T09:26:27;26.30;29.30
7341;DHT22;6870;50.944;6.932;2022-07-23T09:29:08;26.30;28.90
7341;DHT22;6870;50.944;6.932;2022-07-23T09:31:48;26.30;28.70
7341;DHT22;6870;50.944;6.932;2022-07-23T09:34:22;26.30;28.90
7341;DHT22;6870;50.944;6.932;2022-07-23T09:36:52;26.30;28.70
7341;DHT22;6870;50.944;6.932;2022-07-23T09:39:27;26.30;28.60
7341;DHT22;6870;50.944;6.932;2022-07-23T09:42:12;26.40;28.40
7341;DHT22;6870;50.944;6.932;2022-07-23T09:44:42;26.60;28.50
7341;DHT22;6870;50.944;6.932;2022-07-23T09:47:12;26.30;28.90
7341;DHT22;6870;50.944;6.932;2022-07-23T09:49:40;26.40;28.40
7341;DHT22;6870;50.944;6.932;2022-07-23T09:52:27;26.30;28.20
7341;DHT22;6870;50.944;6.932;2022-07-23T09:55:04;26.50;28.40
7341;DHT22;6870;50.944;6.932;2022-07-23T09:57:34;26.60;28.20
7341;DHT22;6870;50.944;6.932;2022-07-23T10:00:05;26.50;28.20
7341;DHT22;6870;50.944;6.932;2022-07-23T10:02:35;26.20;27.80
7341;DHT22;6870;50.944;6.932;2022-07-23T10:05:05;26.20;27.70
7341;DHT22;6870;50.944;6.932;2022-07-23T10:07:37;26.70;27.80
7341;DHT22;6870;50.944;6.932;2022-07-23T10:10:09;26.50;27.50
7341;DHT22;6870;50.944;6.932;2022-07-23T10:12:39;26.40;27.60
7341;DHT22;6870;50.944;6.932;2022-07-23T10:15:25;26.70;27.70
7341;DHT22;6870;50.944;6.932;2022-07-23T10:17:54;26.50;27.50
7341;DHT22;6870;50.944;6.932;2022-07-23T10:20:22;26.70;27.60
7341;DHT22;6870;50.944;6.932;2022-07-23T10:23:02;26.70;27.50
7341;DHT22;6870;50.944;6.932;2022-07-23T10:29:04;26.70;27.40
7341;DHT22;6870;50.944;6.932;2022-07-23T10:31:46;26.70;27.10
7341;DHT22;6870;50.944;6.932;2022-07-23T10:34:36;26.60;27.50
7341;DHT22;6870;50.944;6.932;2022-07-23T10:37:14;26.90;27.40
7341;DHT22;6870;50.944;6.932;2022-07-23T10:40:09;26.90;27.00
7341;DHT22;6870;50.944;6.932;2022-07-23T10:42:39;27.00;26.40
7341;DHT22;6870;50.944;6.932;2022-07-23T10:45:30;27.00;26.10
7341;DHT22;6870;50.944;6.932;2022-07-23T10:48:13;26.90;26.00
7341;DHT22;6870;50.944;6.932;2022-07-23T10:50:44;27.10;26.10
7341;DHT22;6870;50.944;6.932;2022-07-23T10:53:53;27.00;26.10
7341;DHT22;6870;50.944;6.932;2022-07-23T11:00:20;27.20;26.20
7341;DHT22;6870;50.944;6.932;2022-07-23T11:02:53;27.10;26.10
7341;DHT22;6870;50.944;6.932;2022-07-23T11:05:23;27.20;26.20
7341;DHT22;6870;50.944;6.932;2022-07-23T11:08:15;27.20;26.20
7341;DHT22;6870;50.944;6.932;2022-07-23T11:10:46;27.30;26.30
7341;DHT22;6870;50.944;6.932;2022-07-23T11:13:46;27.10;26.10
7341;DHT22;6870;50.944;6.932;2022-07-23T11:16:21;27.30;26.30
7341;DHT22;6870;50.944;6.932;2022-07-23T11:19:02;27.70;26.30
7341;DHT22;6870;50.944;6.932;2022-07-23T11:21:56;27.30;26.30
7341;DHT22;6870;50.944;6.932;2022-07-23T11:24:25;27.30;25.20
7341;DHT22;6870;50.944;6.932;2022-07-23T11:27:01;27.50;25.30
7341;DHT22;6870;50.944;6.932;2022-07-23T11:29:44;27.50;25.20
7341;DHT22;6870;50.944;6.932;2022-07-23T11:32:34;27.00;25.00
7341;DHT22;6870;50.944;6.932;2022-07-23T11:35:21;27.20;25.20
7341;DHT22;6870;50.944;6.932;2022-07-23T11:37:52;27.40;25.30
7341;DHT22;6870;50.944;6.932;2022-07-23T11:40:25;27.20;24.90
7341;DHT22;6870;50.944;6.932;2022-07-23T11:42:57;27.60;24.90
7341;DHT22;6870;50.944;6.932;2022-07-23T11:45:32;27.60;24.40
7341;DHT22;6870;50.944;6.932;2022-07-23T11:48:02;27.30;24.40
7341;DHT22;6870;50.944;6.932;2022-07-23T11:50:32;27.70;24.40
7341;DHT22;6870;50.944;6.932;2022-07-23T11:53:00;27.40;24.10
7341;DHT22;6870;50.944;6.932;2022-07-23T11:55:29;27.40;24.00
7341;DHT22;6870;50.944;6.932;2022-07-23T11:57:58;27.40;23.70
7341;DHT22;6870;50.944;6.932;2022-07-23T12:00:28;27.70;24.70
7341;DHT22;6870;50.944;6.932;2022-07-23T12:03:02;27.60;24.00
7341;DHT22;6870;50.944;6.932;2022-07-23T12:05:33;27.10;23.50
7341;DHT22;6870;50.944;6.932;2022-07-23T12:08:05;27.10;23.20
7341;DHT22;6870;50.944;6.932;2022-07-23T12:10:35;27.50;23.60
7341;DHT22;6870;50.944;6.932;2022-07-23T12:13:06;27.60;23.60
7341;DHT22;6870;50.944;6.932;2022-07-23T12:15:39;27.80;23.40
7341;DHT22;6870;50.944;6.932;2022-07-23T12:18:10;27.50;23.30
7341;DHT22;6870;50.944;6.932;2022-07-23T12:20:42;27.50;22.90
7341;DHT22;6870;50.944;6.932;2022-07-23T12:23:14;27.40;22.80
7341;DHT22;6870;50.944;6.932;2022-07-23T12:25:48;27.40;22.30
7341;DHT22;6870;50.944;6.932;2022-07-23T12:28:19;27.70;22.60
7341;DHT22;6870;50.944;6.932;2022-07-23T12:30:49;27.60;21.80
7341;DHT22;6870;50.944;6.932;2022-07-23T12:33:23;27.80;22.20
7341;DHT22;6870;50.944;6.932;2022-07-23T12:35:56;27.90;21.30
7341;DHT22;6870;50.944;6.932;2022-07-23T12:38:27;27.70;20.20
7341;DHT22;6870;50.944;6.932;2022-07-23T12:40:57;28.00;20.60
7341;DHT22;6870;50.944;6.932;2022-07-23T12:43:28;27.90;20.40
7341;DHT22;6870;50.944;6.932;2022-07-23T12:46:03;28.20;20.20
7341;DHT22;6870;50.944;6.932;2022-07-23T12:48:34;27.90;20.00
7341;DHT22;6870;50.944;6.932;2022-07-23T12:51:06;27.50;20.00
7341;DHT22;6870;50.944;6.932;2022-07-23T12:53:45;28.00;19.40
7341;DHT22;6870;50.944;6.932;2022-07-23T12:56:17;27.80;19.90
7341;DHT22;6870;50.944;6.932;2022-07-23T12:58:48;27.80;20.30
7341;DHT22;6870;50.944;6.932;2022-07-23T13:01:28;27.90;20.40
7341;DHT22;6870;50.944;6.932;2022-07-23T13:04:03;27.70;19.60
7341;DHT22;6870;50.944;6.932;2022-07-23T13:06:42;27.80;19.80
7341;DHT22;6870;50.944;6.932;2022-07-23T13:09:13;27.80;19.70
7341;DHT22;6870;50.944;6.932;2022-07-23T13:11:44;27.90;19.70
7341;DHT22;6870;50.944;6.932;2022-07-23T13:14:14;27.70;19.70
7341;DHT22;6870;50.944;6.932;2022-07-23T13:16:43;27.80;20.00
7341;DHT22;6870;50.944;6.932;2022-07-23T13:19:12;27.90;19.80
7341;DHT22;6870;50.944;6.932;2022-07-23T13:21:42;27.80;19.40
7341;DHT22;6870;50.944;6.932;2022-07-23T13:24:11;28.40;19.50
7341;DHT22;6870;50.944;6.932;2022-07-23T13:26:41;27.90;19.30
7341;DHT22;6870;50.944;6.932;2022-07-23T13:29:09;28.00;19.30
7341;DHT22;6870;50.944;6.932;2022-07-23T13:31:38;27.90;19.80
7341;DHT22;6870;50.944;6.932;2022-07-23T13:34:07;28.00;19.70
7341;DHT22;6870;50.944;6.932;2022-07-23T13:36:36;28.00;19.30
7341;DHT22;6870;50.944;6.932;2022-07-23T13:39:05;27.80;19.30
7341;DHT22;6870;50.944;6.932;2022-07-23T13:41:36;27.90;19.30
7341;DHT22;6870;50.944;6.932;2022-07-23T13:44:05;28.10;19.60
7341;DHT22;6870;50.944;6.932;2022-07-23T13:46:34;28.00;19.50
7341;DHT22;6870;50.944;6.932;2022-07-23T13:49:02;27.90;19.30
7341;DHT22;6870;50.944;6.932;2022-07-23T13:51:36;28.30;19.20
7341;DHT22;6870;50.944;6.932;2022-07-23T13:54:05;28.00;19.20
7341;DHT22;6870;50.944;6.932;2022-07-23T13:56:35;28.00;18.90
7341;DHT22;6870;50.944;6.932;2022-07-23T13:59:03;28.30;20.00
7341;DHT22;6870;50.944;6.932;2022-07-23T14:01:33;28.30;19.40
7341;DHT22;6870;50.944;6.932;2022-07-23T14:04:21;27.90;19.00
7341;DHT22;6870;50.944;6.932;2022-07-23T14:06:49;28.10;19.10
7341;DHT22;6870;50.944;6.932;2022-07-23T14:09:22;28.10;18.90
7341;DHT22;6870;50.944;6.932;2022-07-23T14:11:51;27.90;18.60
7341;DHT22;6870;50.944;6.932;2022-07-23T14:14:19;28.20;19.00
7341;DHT22;6870;50.944;6.932;2022-07-23T14:16:48;28.10;18.60
7341;DHT22;6870;50.944;6.932;2022-07-23T14:19:16;28.00;18.80
7341;DHT22;6870;50.944;6.932;2022-07-23T14:21:45;27.80;18.60
7341;DHT22;6870;50.944;6.932;2022-07-23T14:24:15;28.00;18.30
7341;DHT22;6870;50.944;6.932;2022-07-23T14:26:45;28.00;18.60
7341;DHT22;6870;50.944;6.932;2022-07-23T14:29:14;28.00;18.20
7341;DHT22;6870;50.944;6.932;2022-07-23T14:31:42;27.90;18.30
7341;DHT22;6870;50.944;6.932;2022-07-23T14:34:13;28.00;18.20
7341;DHT22;6870;50.944;6.932;2022-07-23T14:36:41;28.40;18.40
7341;DHT22;6870;50.944;6.932;2022-07-23T14:39:10;28.40;18.00
7341;DHT22;6870;50.944;6.932;2022-07-23T14:41:38;27.90;17.80
7341;DHT22;6870;50.944;6.932;2022-07-23T14:44:08;27.90;18.10
7341;DHT22;6870;50.944;6.932;2022-07-23T14:46:36;27.80;18.10
7341;DHT22;6870;50.944;6.932;2022-07-23T14:49:05;28.10;17.90
7341;DHT22;6870;50.944;6.932;2022-07-23T14:51:34;27.90;17.90
7341;DHT22;6870;50.944;6.932;2022-07-23T14:54:04;27.90;17.70
7341;DHT22;6870;50.944;6.932;2022-07-23T14:56:32;28.30;18.40
7341;DHT22;6870;50.944;6.932;2022-07-23T14:59:02;28.20;18.20
7341;DHT22;6870;50.944;6.932;2022-07-23T15:01:33;27.80;17.90
7341;DHT22;6870;50.944;6.932;2022-07-23T15:04:02;28.00;18.30
7341;DHT22;6870;50.944;6.932;2022-07-23T15:06:51;27.90;18.30
7341;DHT22;6870;50.944;6.932;2022-07-23T15:09:19;28.10;18.10
7341;DHT22;6870;50.944;6.932;2022-07-23T15:11:48;27.90;18.20
7341;DHT22;6870;50.944;6.932;2022-07-23T15:14:16;27.80;18.80
7341;DHT22;6870;50.944;6.932;2022-07-23T15:16:56;27.80;18.20
7341;DHT22;6870;50.944;6.932;2022-07-23T15:19:25;28.20;18.50
7341;DHT22;6870;50.944;6.932;2022-07-23T15:21:56;28.00;18.10
7341;DHT22;6870;50.944;6.932;2022-07-23T15:24:27;28.00;17.90
7341;DHT22;6870;50.944;6.932;2022-07-23T15:26:56;27.90;18.40
7341;DHT22;6870;50.944;6.932;2022-07-23T15:29:24;27.60;17.80
7341;DHT22;6870;50.944;6.932;2022-07-23T15:31:56;28.10;18.30
7341;DHT22;6870;50.944;6.932;2022-07-23T15:34:25;27.70;18.10
7341;DHT22;6870;50.944;6.932;2022-07-23T15:36:53;27.80;18.40
7341;DHT22;6870;50.944;6.932;2022-07-23T15:39:22;27.90;18.50
7341;DHT22;6870;50.944;6.932;2022-07-23T15:41:51;27.90;18.10
7341;DHT22;6870;50.944;6.932;2022-07-23T15:44:19;28.00;18.40
7341;DHT22;6870;50.944;6.932;2022-07-23T15:46:57;27.70;18.20
7341;DHT22;6870;50.944;6.932;2022-07-23T15:49:26;27.80;18.20
7341;DHT22;6870;50.944;6.932;2022-07-23T15:51:54;27.80;18.40
7341;DHT22;6870;50.944;6.932;2022-07-23T15:54:24;27.60;18.30
7341;DHT22;6870;50.944;6.932;2022-07-23T15:56:53;27.70;18.60
7341;DHT22;6870;50.944;6.932;2022-07-23T15:59:21;27.70;18.50
7341;DHT22;6870;50.944;6.932;2022-07-23T16:01:57;27.80;18.90
7341;DHT22;6870;50.944;6.932;2022-07-23T16:04:25;27.30;18.70
7341;DHT22;6870;50.944;6.932;2022-07-23T16:06:54;27.40;18.80
7341;DHT22;6870;50.944;6.932;2022-07-23T16:09:22;27.70;18.80
7341;DHT22;6870;50.944;6.932;2022-07-23T16:11:50;27.50;18.80
7341;DHT22;6870;50.944;6.932;2022-07-23T16:14:20;27.50;18.40
7341;DHT22;6870;50.944;6.932;2022-07-23T16:16:48;27.60;18.20
7341;DHT22;6870;50.944;6.932;2022-07-23T16:19:18;27.70;18.50
7341;DHT22;6870;50.944;6.932;2022-07-23T16:21:46;27.60;18.40
7341;DHT22;6870;50.944;6.932;2022-07-23T16:24:16;27.60;18.70
7341;DHT22;6870;50.944;6.932;2022-07-23T16:26:45;27.00;18.10
7341;DHT22;6870;50.944;6.932;2022-07-23T16:29:13;27.10;18.10
7341;DHT22;6870;50.944;6.932;2022-07-23T16:31:46;27.70;18.90